Wetterdaten: Woche 27.02.06 - 05.03.06 (KW9)
Datum Zeit Temperatur Luftfeuchte Luftdruck Niederschlag Windrichtung Wind
27.02.2006 00:00 -5,2 C 77 % 1015 hPa 0,0 l/m N 9,3 km/h (2 Bft)
27.02.2006 01:00 -5,3 C 80 % 1015 hPa 0,0 l/m N 7,0 km/h (2 Bft)
27.02.2006 02:00 -5,7 C 80 % 1015 hPa 0,0 l/m N 3,8 km/h (1 Bft)
27.02.2006 03:00 -6,9 C 80 % 1015 hPa 0,0 l/m N 0,0 km/h (0 Bft)
27.02.2006 04:00 -7,5 C 83 % 1014 hPa 0,0 l/m W-NW 1,2 km/h (1 Bft)
27.02.2006 05:00 -8,8 C 84 % 1015 hPa 0,0 l/m N-NW 0,8 km/h (0 Bft)
27.02.2006 06:00 -9,5 C 85 % 1015 hPa 0,0 l/m N 0,0 km/h (0 Bft)
27.02.2006 07:00 -9,7 C 86 % 1015 hPa 0,0 l/m N 0,0 km/h (0 Bft)
27.02.2006 08:00 -8,0 C 88 % 1015 hPa 0,0 l/m N 0,0 km/h (0 Bft)
27.02.2006 09:00 -6,3 C 88 % 1015 hPa 0,0 l/m N 0,0 km/h (0 Bft)
27.02.2006 10:00 -3,3 C 70 % 1015 hPa 0,0 l/m N 6,5 km/h (2 Bft)
27.02.2006 11:00 -1,9 C 56 % 1015 hPa 0,0 l/m NO 10,1 km/h (2 Bft)
27.02.2006 12:00 -1,0 C 52 % 1015 hPa 0,0 l/m O 12,0 km/h (2 Bft)
27.02.2006 13:00 -0,3 C 48 % 1014 hPa 0,0 l/m O 10,4 km/h (2 Bft)
27.02.2006 14:00 0,8 C 44 % 1013 hPa 0,0 l/m O 13,0 km/h (3 Bft)
27.02.2006 15:00 0,2 C 44 % 1013 hPa 0,0 l/m O 9,2 km/h (2 Bft)
27.02.2006 16:00 -0,7 C 45 % 1013 hPa 0,0 l/m O 7,1 km/h (2 Bft)
27.02.2006 17:00 -1,4 C 45 % 1013 hPa 1,0 l/m N-NO 1,5 km/h (1 Bft)
27.02.2006 18:00 -3,2 C 51 % 1013 hPa 0,0 l/m N 0,0 km/h (0 Bft)
27.02.2006 19:00 -4,7 C 56 % 1013 hPa 0,0 l/m N 0,0 km/h (0 Bft)
27.02.2006 20:00 -6,0 C 60 % 1013 hPa 0,0 l/m N 0,0 km/h (0 Bft)
27.02.2006 21:00 -7,0 C 64 % 1013 hPa 0,0 l/m N 0,0 km/h (0 Bft)
27.02.2006 22:00 -7,9 C 68 % 1013 hPa 0,0 l/m N 0,0 km/h (0 Bft)
27.02.2006 23:00 -8,7 C 72 % 1012 hPa 0,0 l/m N 0,0 km/h (0 Bft)
28.02.2006 00:00 -9,4 C 75 % 1012 hPa 0,0 l/m N 0,0 km/h (0 Bft)
28.02.2006 01:00 -9,8 C 77 % 1011 hPa 0,0 l/m N 0,0 km/h (0 Bft)
28.02.2006 02:00 -10,4 C 78 % 1011 hPa 0,0 l/m N 0,0 km/h (0 Bft)
28.02.2006 03:00 -10,7 C 78 % 1010 hPa 0,0 l/m N 0,0 km/h (0 Bft)
28.02.2006 04:00 -10,9 C 78 % 1009 hPa 0,0 l/m N 0,0 km/h (0 Bft)
28.02.2006 05:00 -10,1 C 80 % 1009 hPa 0,0 l/m SO 0,2 km/h (0 Bft)
28.02.2006 06:00 -7,4 C 90 % 1009 hPa 0,0 l/m S-SW 14,2 km/h (3 Bft)
28.02.2006 07:00 -6,3 C 90 % 1008 hPa 0,0 l/m SW 17,2 km/h (3 Bft)
28.02.2006 08:00 -5,9 C 86 % 1008 hPa 0,0 l/m S-SW 15,6 km/h (3 Bft)
28.02.2006 09:00 -4,9 C 83 % 1008 hPa 0,0 l/m S-SW 14,0 km/h (3 Bft)
28.02.2006 10:00 -3,6 C 78 % 1007 hPa 0,0 l/m S-SW 17,4 km/h (3 Bft)
28.02.2006 11:00 -2,8 C 74 % 1007 hPa 0,0 l/m SW 19,7 km/h (3 Bft)
28.02.2006 12:00 -2,0 C 71 % 1006 hPa 0,0 l/m SW 17,5 km/h (3 Bft)
28.02.2006 13:00 -1,8 C 67 % 1005 hPa 0,0 l/m SW 22,1 km/h (4 Bft)
28.02.2006 14:00 -1,5 C 68 % 1005 hPa 0,0 l/m S-SW 21,4 km/h (4 Bft)
28.02.2006 15:00 -1,5 C 70 % 1004 hPa 0,0 l/m SW 20,4 km/h (4 Bft)
28.02.2006 16:00 -1,4 C 71 % 1003 hPa 0,0 l/m SW 20,4 km/h (4 Bft)
28.02.2006 17:00 -1,3 C 70 % 1003 hPa 0,0 l/m SW 20,1 km/h (4 Bft)
28.02.2006 18:00 -1,6 C 74 % 1002 hPa 0,0 l/m SW 18,5 km/h (3 Bft)
28.02.2006 19:00 -1,7 C 80 % 1002 hPa 0,0 l/m SW 19,7 km/h (3 Bft)
28.02.2006 20:00 -1,6 C 83 % 1002 hPa 0,0 l/m SW 20,7 km/h (4 Bft)
28.02.2006 21:00 -1,5 C 86 % 1002 hPa 0,0 l/m SW 21,0 km/h (4 Bft)
28.02.2006 22:00 -1,5 C 85 % 1003 hPa 0,0 l/m W-SW 17,2 km/h (3 Bft)
28.02.2006 23:00 -2,1 C 79 % 1003 hPa 0,0 l/m SW 15,4 km/h (3 Bft)
01.03.2006 00:00 -2,4 C 80 % 1003 hPa 0,0 l/m SW 16,6 km/h (3 Bft)
01.03.2006 01:00 -2,3 C 79 % 1003 hPa 0,0 l/m SW 15,7 km/h (3 Bft)
01.03.2006 02:00 -2,4 C 79 % 1003 hPa 0,0 l/m W-SW 14,6 km/h (3 Bft)
01.03.2006 03:00 -2,4 C 85 % 1003 hPa 0,0 l/m W-SW 14,0 km/h (3 Bft)
01.03.2006 04:00 -2,4 C 86 % 1003 hPa 0,0 l/m W-SW 14,0 km/h (3 Bft)
01.03.2006 05:00 -2,5 C 86 % 1003 hPa 0,0 l/m W-SW 11,6 km/h (2 Bft)
01.03.2006 06:00 -2,9 C 90 % 1004 hPa 0,0 l/m W 11,4 km/h (2 Bft)
01.03.2006 07:00 -3,2 C 90 % 1004 hPa 0,0 l/m W-SW 9,5 km/h (2 Bft)
01.03.2006 08:00 -2,7 C 87 % 1004 hPa 0,0 l/m S-SW 11,2 km/h (2 Bft)
01.03.2006 09:00 -2,3 C 82 % 1004 hPa 0,0 l/m S-SW 11,5 km/h (2 Bft)
01.03.2006 10:00 -1,5 C 80 % 1004 hPa 0,0 l/m W-SW 17,1 km/h (3 Bft)
01.03.2006 11:00 -2,1 C 80 % 1005 hPa 0,0 l/m W-NW 19,8 km/h (4 Bft)
01.03.2006 12:00 -1,4 C 77 % 1006 hPa 0,0 l/m W 18,5 km/h (3 Bft)
01.03.2006 13:00 -1,0 C 64 % 1007 hPa 0,0 l/m W 18,5 km/h (3 Bft)
01.03.2006 14:00 -0,1 C 50 % 1006 hPa 0,0 l/m W 20,0 km/h (4 Bft)
01.03.2006 15:00 -1,3 C 51 % 1007 hPa 0,0 l/m W 12,8 km/h (3 Bft)
01.03.2006 16:00 -1,1 C 52 % 1007 hPa 0,0 l/m W-SW 16,3 km/h (3 Bft)
01.03.2006 17:00 -1,9 C 51 % 1007 hPa 0,0 l/m SW 13,7 km/h (3 Bft)
01.03.2006 18:00 -2,9 C 49 % 1007 hPa 0,0 l/m W-SW 13,8 km/h (3 Bft)
01.03.2006 19:00 -4,1 C 52 % 1008 hPa 0,0 l/m W-SW 9,8 km/h (2 Bft)
01.03.2006 20:00 -5,0 C 55 % 1008 hPa 0,0 l/m SW 10,0 km/h (2 Bft)
01.03.2006 21:00 -6,1 C 59 % 1007 hPa 0,0 l/m S-SW 11,2 km/h (2 Bft)
01.03.2006 22:00 -5,6 C 61 % 1007 hPa 0,0 l/m S-SW 11,5 km/h (2 Bft)
01.03.2006 23:00 -5,7 C 64 % 1007 hPa 0,0 l/m SW 12,2 km/h (2 Bft)
02.03.2006 00:00 -5,8 C 66 % 1007 hPa 0,0 l/m SW 11,5 km/h (2 Bft)
02.03.2006 01:00 -7,0 C 70 % 1006 hPa 0,0 l/m S 9,2 km/h (2 Bft)
02.03.2006 02:00 -8,2 C 80 % 1006 hPa 0,0 l/m SO 6,4 km/h (2 Bft)
02.03.2006 03:00 -8,9 C 84 % 1006 hPa 0,0 l/m N 0,0 km/h (0 Bft)
02.03.2006 04:00 -6,9 C 82 % 1005 hPa 0,0 l/m S-SW 15,5 km/h (3 Bft)
02.03.2006 05:00 -6,7 C 73 % 1005 hPa 0,0 l/m SW 12,9 km/h (3 Bft)
02.03.2006 06:00 -6,3 C 77 % 1005 hPa 0,0 l/m SW 14,3 km/h (3 Bft)
02.03.2006 07:00 -5,4 C 71 % 1005 hPa 0,0 l/m S-SW 16,1 km/h (3 Bft)
02.03.2006 08:00 -5,6 C 70 % 1005 hPa 0,0 l/m S-SW 13,8 km/h (3 Bft)
02.03.2006 09:00 -4,1 C 64 % 1005 hPa 0,0 l/m S-SW 14,9 km/h (3 Bft)
02.03.2006 10:00 -2,5 C 60 % 1005 hPa 0,0 l/m S-SW 18,1 km/h (3 Bft)
02.03.2006 11:00 -1,6 C 59 % 1005 hPa 0,0 l/m W-SW 19,2 km/h (3 Bft)
02.03.2006 12:00 -1,4 C 58 % 1005 hPa 1,0 l/m W-SW 21,5 km/h (4 Bft)
02.03.2006 13:00 -1,7 C 64 % 1005 hPa 0,0 l/m W-SW 21,8 km/h (4 Bft)
02.03.2006 14:00 -1,8 C 78 % 1005 hPa 0,0 l/m SW 19,4 km/h (3 Bft)
02.03.2006 15:00 -1,9 C 81 % 1005 hPa 0,0 l/m W-SW 17,1 km/h (3 Bft)
02.03.2006 16:00 -1,5 C 74 % 1005 hPa 0,0 l/m SW 16,8 km/h (3 Bft)
02.03.2006 17:00 -1,9 C 71 % 1006 hPa 0,0 l/m SW 12,6 km/h (3 Bft)
02.03.2006 18:00 -2,6 C 76 % 1006 hPa 0,0 l/m SW 11,6 km/h (2 Bft)
02.03.2006 19:00 -3,2 C 78 % 1007 hPa 0,0 l/m W-SW 13,2 km/h (3 Bft)
02.03.2006 20:00 -3,9 C 79 % 1007 hPa 0,0 l/m SW 13,4 km/h (3 Bft)
02.03.2006 21:00 -4,7 C 83 % 1007 hPa 0,0 l/m S-SW 11,7 km/h (2 Bft)
02.03.2006 22:00 -5,5 C 86 % 1007 hPa 0,0 l/m S-SW 8,3 km/h (2 Bft)
02.03.2006 23:00 -4,0 C 90 % 1006 hPa 0,0 l/m SW 12,5 km/h (3 Bft)
03.03.2006 00:00 -5,0 C 88 % 1005 hPa 0,0 l/m S-SW 8,4 km/h (2 Bft)
03.03.2006 01:00 -4,5 C 94 % 1004 hPa 0,0 l/m S-SW 3,8 km/h (1 Bft)
03.03.2006 02:00 -4,4 C 97 % 1004 hPa 0,0 l/m N 0,0 km/h (0 Bft)
03.03.2006 03:00 -4,0 C 98 % 1003 hPa 0,0 l/m N 0,0 km/h (0 Bft)
03.03.2006 04:00 -3,9 C 98 % 1002 hPa 0,0 l/m N 0,1 km/h (0 Bft)
03.03.2006 05:00 -3,3 C 99 % 1001 hPa 0,0 l/m S 9,1 km/h (2 Bft)
03.03.2006 06:00 -2,9 C 100 % 1000 hPa 0,0 l/m S 7,1 km/h (2 Bft)
03.03.2006 07:00 -2,5 C 100 % 999 hPa 0,0 l/m S 8,6 km/h (2 Bft)
03.03.2006 08:00 -1,5 C 100 % 999 hPa 0,0 l/m S 13,5 km/h (3 Bft)
03.03.2006 09:00 -0,0 C 100 % 999 hPa 0,0 l/m S-SW 14,4 km/h (3 Bft)
03.03.2006 10:00 0,3 C 100 % 999 hPa 0,0 l/m S-SW 18,2 km/h (3 Bft)
03.03.2006 11:00 0,9 C 100 % 998 hPa 0,0 l/m S-SW 19,4 km/h (3 Bft)
03.03.2006 12:00 2,1 C 99 % 998 hPa 0,0 l/m SW 16,5 km/h (3 Bft)
03.03.2006 13:00 4,0 C 84 % 998 hPa 0,0 l/m W-SW 27,5 km/h (4 Bft)
03.03.2006 14:00 5,1 C 70 % 998 hPa 0,0 l/m S-SW 32,2 km/h (5 Bft)
03.03.2006 15:00 5,6 C 62 % 997 hPa 0,0 l/m S-SW 29,6 km/h (5 Bft)
03.03.2006 16:00 5,6 C 61 % 997 hPa 0,0 l/m S 28,7 km/h (4 Bft)
03.03.2006 17:00 5,5 C 63 % 996 hPa 0,0 l/m S-SO 34,6 km/h (5 Bft)
03.03.2006 18:00 5,5 C 62 % 996 hPa 0,0 l/m S 33,9 km/h (5 Bft)
03.03.2006 19:00 5,6 C 63 % 996 hPa 1,0 l/m S 28,8 km/h (5 Bft)
03.03.2006 20:00 4,0 C 83 % 996 hPa 2,0 l/m S 24,0 km/h (4 Bft)
03.03.2006 21:00 3,5 C 91 % 995 hPa 0,0 l/m S 23,8 km/h (4 Bft)
03.03.2006 22:00 3,9 C 88 % 995 hPa 0,0 l/m S 25,4 km/h (4 Bft)
03.03.2006 23:00 3,9 C 86 % 994 hPa 2,0 l/m S 24,4 km/h (4 Bft)
04.03.2006 00:00 3,2 C 92 % 994 hPa 2,0 l/m S-SW 15,8 km/h (3 Bft)
04.03.2006 01:00 2,1 C 93 % 994 hPa 2,0 l/m SW 11,9 km/h (2 Bft)
04.03.2006 02:00 0,7 C 95 % 995 hPa 0,0 l/m N 0,0 km/h (0 Bft)
04.03.2006 03:00 0,8 C 99 % 996 hPa 0,0 l/m N 0,0 km/h (0 Bft)
04.03.2006 04:00 0,9 C 100 % 997 hPa 0,0 l/m N 0,0 km/h (0 Bft)
04.03.2006 05:00 0,7 C 99 % 998 hPa 0,0 l/m N 0,0 km/h (0 Bft)
04.03.2006 06:00 0,5 C 97 % 998 hPa 0,0 l/m N 0,0 km/h (0 Bft)
04.03.2006 07:00 -0,3 C 95 % 998 hPa 0,0 l/m N 0,0 km/h (0 Bft)
04.03.2006 08:00 -1,0 C 95 % 999 hPa 0,0 l/m N 0,0 km/h (0 Bft)
04.03.2006 09:00 -1,0 C 95 % 998 hPa 0,0 l/m N 0,0 km/h (0 Bft)
04.03.2006 10:00 -0,5 C 92 % 998 hPa 0,0 l/m N 0,0 km/h (0 Bft)
04.03.2006 11:00 -0,4 C 89 % 998 hPa 0,0 l/m N 0,0 km/h (0 Bft)
04.03.2006 12:00 -0,3 C 88 % 997 hPa 0,0 l/m N 0,0 km/h (0 Bft)
04.03.2006 13:00 -0,0 C 90 % 996 hPa 0,0 l/m N 0,0 km/h (0 Bft)
04.03.2006 14:00 -0,2 C 89 % 996 hPa 0,0 l/m N 0,0 km/h (0 Bft)
04.03.2006 15:00 -0,4 C 91 % 996 hPa 0,0 l/m N 0,0 km/h (0 Bft)
04.03.2006 16:00 -0,8 C 91 % 996 hPa 0,0 l/m N 0,0 km/h (0 Bft)
04.03.2006 17:00 -1,7 C 92 % 997 hPa 0,0 l/m N 0,0 km/h (0 Bft)
04.03.2006 18:00 -2,2 C 93 % 997 hPa 0,0 l/m N 0,0 km/h (0 Bft)
04.03.2006 19:00 -2,4 C 95 % 998 hPa 0,0 l/m N 0,0 km/h (0 Bft)
04.03.2006 20:00 -2,8 C 95 % 998 hPa 0,0 l/m N 0,0 km/h (0 Bft)
04.03.2006 21:00 -3,0 C 96 % 998 hPa 0,0 l/m N 0,0 km/h (0 Bft)
04.03.2006 22:00 -3,2 C 97 % 998 hPa 0,0 l/m N 0,0 km/h (0 Bft)
04.03.2006 23:00 -3,3 C 97 % 998 hPa 0,0 l/m N 0,0 km/h (0 Bft)
05.03.2006 00:00 -3,4 C 98 % 998 hPa 0,0 l/m N 0,0 km/h (0 Bft)
05.03.2006 01:00 -3,5 C 98 % 997 hPa 0,0 l/m N 0,0 km/h (0 Bft)
05.03.2006 02:00 -3,6 C 98 % 998 hPa 0,0 l/m N 0,0 km/h (0 Bft)
05.03.2006 03:00 -3,7 C 98 % 997 hPa 0,0 l/m N 0,0 km/h (0 Bft)
05.03.2006 04:00 -3,8 C 98 % 998 hPa 0,0 l/m N 0,0 km/h (0 Bft)
05.03.2006 05:00 -4,0 C 96 % 999 hPa 0,0 l/m N 0,0 km/h (0 Bft)
05.03.2006 06:00 -4,2 C 94 % 1000 hPa 0,0 l/m N 0,0 km/h (0 Bft)
05.03.2006 07:00 -4,1 C 93 % 1001 hPa 0,0 l/m N 0,0 km/h (0 Bft)
05.03.2006 08:00 -3,6 C 93 % 1002 hPa 0,0 l/m N 0,0 km/h (0 Bft)
05.03.2006 09:00 -2,7 C 91 % 1003 hPa 0,0 l/m N 0,0 km/h (0 Bft)
05.03.2006 10:00 -1,8 C 81 % 1004 hPa 0,0 l/m N 0,0 km/h (0 Bft)
05.03.2006 11:00 -1,3 C 75 % 1005 hPa 1,0 l/m N 0,0 km/h (0 Bft)
05.03.2006 12:00 -0,6 C 66 % 1006 hPa 0,0 l/m N 0,0 km/h (0 Bft)
05.03.2006 13:00 -0,2 C 63 % 1006 hPa 0,0 l/m N 0,0 km/h (0 Bft)
05.03.2006 14:00 -0,3 C 62 % 1007 hPa 0,0 l/m N 0,0 km/h (0 Bft)
05.03.2006 15:00 -0,6 C 65 % 1007 hPa 0,0 l/m N 0,0 km/h (0 Bft)
05.03.2006 16:00 -0,8 C 68 % 1008 hPa 0,0 l/m N 0,0 km/h (0 Bft)
05.03.2006 17:00 -1,9 C 73 % 1009 hPa 0,0 l/m N 0,0 km/h (0 Bft)
05.03.2006 18:00 -2,9 C 81 % 1010 hPa 0,0 l/m N 0,0 km/h (0 Bft)
05.03.2006 19:00 -3,5 C 84 % 1011 hPa 0,0 l/m N 0,0 km/h (0 Bft)
05.03.2006 20:00 -4,4 C 85 % 1011 hPa 0,0 l/m N 0,0 km/h (0 Bft)
05.03.2006 21:00 -4,5 C 89 % 1011 hPa 0,0 l/m N 0,0 km/h (0 Bft)
05.03.2006 22:00 -3,4 C 91 % 1012 hPa 0,0 l/m N 0,0 km/h (0 Bft)
05.03.2006 23:00 -3,0 C 86 % 1012 hPa 0,0 l/m N 0,0 km/h (0 Bft)
Min-Datum _ 28.02.06 27.02.06 03.03.06 - - 27.02.06
_ Min-Zeit 03:56 14:23 23:04 - - 00:16
Minimum _ -11,0 C 43 % 994 hPa - - 0,0 km/h (0 Bft)
Max-Datum _ 03.03.06 03.03.06 27.02.06 03.03.06 - 03.03.06
_ Max-Zeit 16:00 05:49 00:00 20:46 - 16:10
Maximum _ 5,8 C 100 % 1015 hPa 2,0 l/m - 64,0 km/h
S (8 Bft)
Durchschnitt _ -2,7 C 79 % 1005 hPa #12,0 l/m SW 9,2 km/h (2 Bft)

Durchschnitt Minimum Temp.-3,1 C
Durchschnitt Maximum Temp.-2,3 C